createdAt,value
2022-08-11T00:00:09.723Z,16.90
2022-08-11T00:05:24.749Z,16.80
2022-08-11T00:10:34.885Z,16.90
2022-08-11T00:15:49.774Z,16.70
2022-08-11T00:20:59.895Z,16.70
2022-08-11T00:26:10.675Z,16.80
2022-08-11T00:31:34.454Z,16.60
2022-08-11T00:36:52.637Z,16.50
2022-08-11T00:42:32.821Z,16.50
2022-08-11T00:48:15.530Z,16.50
2022-08-11T00:53:53.960Z,16.30
2022-08-11T00:59:43.082Z,16.40
2022-08-11T01:05:12.955Z,16.20
2022-08-11T01:10:46.603Z,16.30
2022-08-11T01:16:34.940Z,16.10
2022-08-11T01:22:05.946Z,16.20
2022-08-11T01:27:35.084Z,16.10
2022-08-11T01:33:23.006Z,16.00
2022-08-11T01:39:00.157Z,15.90
2022-08-11T01:44:39.052Z,16.10
2022-08-11T01:50:07.218Z,16.10
2022-08-11T01:55:28.742Z,16.00
2022-08-11T02:00:41.137Z,15.90
2022-08-11T02:06:31.021Z,15.90
2022-08-11T02:11:41.161Z,15.70
2022-08-11T02:17:06.084Z,15.80
2022-08-11T02:22:43.794Z,15.70
2022-08-11T02:28:09.549Z,15.90
2022-08-11T02:33:27.688Z,15.60
2022-08-11T02:39:00.087Z,15.80
2022-08-11T02:44:28.632Z,15.60
2022-08-11T02:50:07.191Z,15.70
2022-08-11T02:55:57.071Z,15.80
2022-08-11T03:01:20.277Z,15.50
2022-08-11T03:06:57.339Z,15.50
2022-08-11T03:12:29.597Z,15.50
2022-08-11T03:17:57.826Z,15.60
2022-08-11T03:23:32.484Z,15.70
2022-08-11T03:29:03.049Z,15.60
2022-08-11T03:34:27.767Z,15.60
2022-08-11T03:40:02.853Z,15.50
2022-08-11T03:45:24.406Z,15.40
2022-08-11T03:51:04.738Z,15.20
2022-08-11T03:56:41.991Z,15.40
2022-08-11T04:02:02.011Z,15.30
2022-08-11T04:07:45.968Z,15.50
2022-08-11T04:13:28.770Z,15.30
2022-08-11T04:19:15.564Z,15.50
2022-08-11T04:25:00.254Z,15.10
2022-08-11T04:30:29.905Z,15.20
2022-08-11T04:36:01.717Z,15.20
2022-08-11T04:41:42.764Z,15.10
2022-08-11T04:47:12.360Z,15.10
2022-08-11T04:53:02.504Z,15.30
2022-08-11T04:58:48.277Z,15.30
2022-08-11T05:04:32.063Z,15.40
2022-08-11T05:10:02.722Z,15.30
2022-08-11T05:15:42.523Z,15.40
2022-08-11T05:21:08.475Z,15.40
2022-08-11T05:26:47.001Z,15.20
2022-08-11T05:32:08.216Z,15.20
2022-08-11T05:37:34.957Z,15.20
2022-08-11T05:43:08.788Z,15.30
2022-08-11T05:48:34.887Z,15.20
2022-08-11T05:54:29.295Z,15.30
2022-08-11T05:59:29.687Z,15.30
2022-08-11T06:04:40.151Z,15.40
2022-08-11T06:09:56.948Z,15.40
2022-08-11T06:15:11.834Z,15.40
2022-08-11T06:20:22.938Z,15.60
2022-08-11T06:25:39.576Z,15.70
2022-08-11T06:30:51.380Z,15.70
2022-08-11T06:36:17.603Z,15.80
2022-08-11T06:41:49.925Z,15.90
2022-08-11T06:46:58.879Z,16.00
2022-08-11T06:52:45.123Z,16.10
2022-08-11T06:57:34.760Z,16.30
2022-08-11T07:03:04.737Z,16.40
2022-08-11T07:08:39.490Z,16.80
2022-08-11T07:14:03.388Z,17.10
2022-08-11T07:19:30.402Z,17.80
2022-08-11T07:25:17.900Z,17.90
2022-08-11T07:30:28.976Z,18.40
2022-08-11T07:35:49.330Z,18.70
2022-08-11T07:41:03.103Z,19.10
2022-08-11T07:46:30.747Z,19.40
2022-08-11T07:52:01.706Z,19.50
2022-08-11T07:58:14.606Z,19.90
2022-08-11T08:03:05.011Z,19.90
2022-08-11T08:08:32.011Z,20.40
2022-08-11T08:14:03.526Z,20.70
2022-08-11T08:19:20.793Z,21.10
2022-08-11T08:24:34.568Z,20.90
2022-08-11T08:30:02.355Z,21.70
2022-08-11T08:35:14.462Z,21.90
2022-08-11T08:40:23.614Z,22.00
2022-08-11T08:45:38.645Z,22.10
2022-08-11T08:51:14.149Z,23.00
2022-08-11T08:56:32.252Z,22.80
2022-08-11T09:02:03.842Z,23.20
2022-08-11T09:07:16.365Z,23.50
2022-08-11T09:12:38.293Z,23.20
2022-08-11T09:17:55.484Z,23.50
2022-08-11T09:24:08.367Z,24.40
2022-08-11T09:28:45.802Z,24.40
2022-08-11T09:34:01.655Z,24.40
2022-08-11T09:39:31.049Z,24.20
2022-08-11T09:44:55.079Z,24.80
2022-08-11T09:50:07.671Z,25.00
2022-08-11T09:55:18.516Z,25.10
2022-08-11T10:00:43.697Z,24.50
2022-08-11T10:06:15.555Z,25.00
2022-08-11T10:11:26.284Z,25.30
2022-08-11T10:16:39.936Z,25.80
2022-08-11T10:21:54.834Z,25.20
2022-08-11T10:27:04.419Z,25.60
2022-08-11T10:32:42.792Z,25.50
2022-08-11T10:38:07.413Z,25.30
2022-08-11T10:43:10.779Z,25.60
2022-08-11T10:48:26.430Z,25.30
2022-08-11T10:54:00.112Z,24.10
2022-08-11T10:59:11.752Z,24.10
2022-08-11T11:04:33.840Z,24.00
2022-08-11T11:09:51.203Z,25.50
2022-08-11T11:15:22.706Z,25.70
2022-08-11T11:21:12.384Z,26.10
2022-08-11T11:26:45.492Z,25.10
2022-08-11T11:32:21.176Z,25.60
2022-08-11T11:37:35.483Z,25.70
2022-08-11T11:42:49.347Z,25.80
2022-08-11T11:48:03.955Z,26.20
2022-08-11T11:53:20.218Z,25.90
2022-08-11T11:58:49.458Z,26.30
2022-08-11T12:04:01.655Z,26.00
2022-08-11T12:09:11.133Z,25.80
2022-08-11T12:14:29.219Z,26.00
2022-08-11T12:19:48.354Z,26.90
2022-08-11T12:25:12.269Z,26.10
2022-08-11T12:30:22.458Z,26.60
2022-08-11T12:35:31.718Z,25.80
2022-08-11T12:41:18.030Z,26.20
2022-08-11T12:46:24.571Z,25.70
2022-08-11T12:52:12.416Z,25.60
2022-08-11T12:57:42.213Z,24.80
2022-08-11T13:03:13.284Z,24.80
2022-08-11T13:08:26.099Z,25.60
2022-08-11T13:13:55.225Z,24.80
2022-08-11T13:18:56.030Z,25.30
2022-08-11T13:24:27.153Z,26.20
2022-08-11T13:29:38.535Z,26.10
2022-08-11T13:34:51.880Z,24.70
2022-08-11T13:40:03.335Z,24.70
2022-08-11T13:45:14.839Z,24.70
2022-08-11T13:50:27.960Z,24.50
2022-08-11T13:55:51.528Z,25.30
2022-08-11T14:00:53.322Z,24.60
2022-08-11T14:06:03.786Z,24.60
2022-08-11T14:12:22.666Z,25.50
2022-08-11T14:16:49.301Z,25.70
2022-08-11T14:22:13.122Z,25.40
2022-08-11T14:28:30.020Z,24.30
2022-08-11T14:32:53.144Z,25.20
2022-08-11T14:37:45.603Z,25.50
2022-08-11T14:43:19.055Z,25.30
2022-08-11T14:48:29.580Z,25.70
2022-08-11T14:53:46.835Z,25.80
2022-08-11T14:58:54.520Z,25.70
2022-08-11T15:04:35.776Z,25.60
2022-08-11T15:09:13.986Z,25.30
2022-08-11T15:14:42.857Z,25.00
2022-08-11T15:20:10.942Z,25.40
2022-08-11T15:25:23.559Z,25.30
2022-08-11T15:30:49.497Z,24.60
2022-08-11T15:36:17.362Z,24.60
2022-08-11T15:41:58.183Z,24.20
2022-08-11T15:47:03.212Z,24.50
2022-08-11T15:52:16.707Z,24.30
2022-08-11T15:57:44.641Z,24.10
2022-08-11T16:02:57.121Z,23.80
2022-08-11T16:08:05.540Z,23.90
2022-08-11T16:13:19.729Z,24.00
2022-08-11T16:18:32.303Z,23.90
2022-08-11T16:23:46.879Z,24.30
2022-08-11T16:28:59.084Z,24.00
2022-08-11T16:34:11.698Z,23.90
2022-08-11T16:39:20.351Z,23.50
2022-08-11T16:44:46.779Z,23.40
2022-08-11T16:50:00.169Z,23.10
2022-08-11T16:55:10.005Z,23.20
2022-08-11T17:00:22.001Z,23.00
2022-08-11T17:05:54.302Z,22.90
2022-08-11T17:11:21.716Z,23.10
2022-08-11T17:16:34.435Z,22.80
2022-08-11T17:22:09.676Z,22.90
2022-08-11T17:27:25.222Z,22.80
2022-08-11T17:33:04.970Z,22.60
2022-08-11T17:38:24.181Z,22.60
2022-08-11T17:43:53.236Z,22.50
2022-08-11T17:49:01.191Z,22.10
2022-08-11T17:54:29.895Z,22.20
2022-08-11T17:59:57.201Z,22.00
2022-08-11T18:05:12.993Z,21.70
2022-08-11T18:10:39.905Z,21.70
2022-08-11T18:16:04.230Z,21.80
2022-08-11T18:21:31.753Z,21.70
2022-08-11T18:26:56.464Z,21.20
2022-08-11T18:32:33.896Z,21.20
2022-08-11T18:37:55.888Z,21.00
2022-08-11T18:43:27.120Z,21.20
2022-08-11T18:48:55.828Z,21.10
2022-08-11T18:54:26.900Z,21.00
2022-08-11T18:59:55.933Z,20.80
2022-08-11T19:06:35.389Z,20.80
2022-08-11T19:10:54.753Z,20.60
2022-08-11T19:16:20.850Z,20.50
2022-08-11T19:21:48.011Z,20.50
2022-08-11T19:27:14.048Z,20.70
2022-08-11T19:32:40.593Z,20.40
2022-08-11T19:38:10.320Z,20.40
2022-08-11T19:43:37.359Z,20.20
2022-08-11T19:49:06.495Z,20.10
2022-08-11T19:54:36.174Z,20.20
2022-08-11T20:00:03.981Z,20.20
2022-08-11T20:05:31.524Z,20.10
2022-08-11T20:10:58.355Z,20.00
2022-08-11T20:16:23.420Z,20.10
2022-08-11T20:21:50.096Z,19.90
2022-08-11T20:27:24.293Z,19.90
2022-08-11T20:32:45.930Z,19.90
2022-08-11T20:38:13.954Z,19.90
2022-08-11T20:44:06.644Z,19.90
2022-08-11T20:49:14.280Z,19.80
2022-08-11T20:54:44.628Z,19.70
2022-08-11T21:00:13.250Z,19.70
2022-08-11T21:06:08.980Z,19.80
2022-08-11T21:16:50.334Z,19.50
2022-08-11T21:22:20.566Z,19.50
2022-08-11T21:27:49.572Z,19.60
2022-08-11T21:33:16.733Z,19.50
2022-08-11T21:38:42.784Z,19.50
2022-08-11T21:44:15.603Z,19.40
2022-08-11T21:49:44.112Z,19.50
2022-08-11T21:55:11.789Z,19.40
2022-08-11T22:00:38.225Z,19.20
2022-08-11T22:06:05.814Z,19.10
2022-08-11T22:11:32.025Z,19.10
2022-08-11T22:17:00.198Z,19.10
2022-08-11T22:22:28.349Z,19.10
2022-08-11T22:27:57.629Z,19.10
2022-08-11T22:33:29.863Z,19.10
2022-08-11T22:38:58.499Z,19.20
2022-08-11T22:44:25.975Z,19.20
2022-08-11T22:49:57.441Z,19.10
2022-08-11T22:55:21.970Z,18.90
2022-08-11T23:00:50.997Z,19.00
2022-08-11T23:06:19.256Z,18.90
2022-08-11T23:12:07.639Z,19.00
2022-08-11T23:17:14.049Z,19.10
2022-08-11T23:22:50.038Z,19.00
2022-08-11T23:28:18.282Z,19.00
2022-08-11T23:33:47.334Z,19.00
2022-08-11T23:39:12.741Z,19.10
2022-08-11T23:44:41.670Z,19.00
2022-08-11T23:50:08.701Z,18.70
2022-08-11T23:55:33.215Z,18.80
